sensor_id;sensor_type;location;lat;lon;timestamp;pressure;altitude;pressure_sealevel;temperature;humidity
41222;BME280;26952;42.884;23.918;2023-04-21T00:01:45;95398.00;;;7.74;100.00
41222;BME280;26952;42.884;23.918;2023-04-21T00:04:11;95400.31;;;7.77;100.00
41222;BME280;26952;42.884;23.918;2023-04-21T00:06:37;95385.19;;;7.71;100.00
41222;BME280;26952;42.884;23.918;2023-04-21T00:09:06;95382.22;;;7.74;100.00
41222;BME280;26952;42.884;23.918;2023-04-21T00:11:31;95394.72;;;7.80;100.00
41222;BME280;26952;42.884;23.918;2023-04-21T00:13:57;95367.09;;;7.52;100.00
41222;BME280;26952;42.884;23.918;2023-04-21T00:16:22;95373.16;;;7.52;100.00
41222;BME280;26952;42.884;23.918;2023-04-21T00:18:48;95397.34;;;7.64;100.00
41222;BME280;26952;42.884;23.918;2023-04-21T00:21:13;95382.91;;;7.60;100.00
41222;BME280;26952;42.884;23.918;2023-04-21T00:23:39;95367.28;;;7.50;100.00
41222;BME280;26952;42.884;23.918;2023-04-21T00:26:04;95380.25;;;7.60;100.00
41222;BME280;26952;42.884;23.918;2023-04-21T00:28:29;95386.81;;;7.64;100.00
41222;BME280;26952;42.884;23.918;2023-04-21T00:30:55;95384.88;;;7.58;100.00
41222;BME280;26952;42.884;23.918;2023-04-21T00:33:20;95379.28;;;7.45;100.00
41222;BME280;26952;42.884;23.918;2023-04-21T00:35:46;95392.28;;;7.38;100.00
41222;BME280;26952;42.884;23.918;2023-04-21T00:38:11;95385.03;;;7.40;100.00
41222;BME280;26952;42.884;23.918;2023-04-21T00:40:37;95389.81;;;7.45;100.00
41222;BME280;26952;42.884;23.918;2023-04-21T00:43:05;95317.75;;;6.89;100.00
41222;BME280;26952;42.884;23.918;2023-04-21T00:45:31;95354.56;;;6.97;100.00
41222;BME280;26952;42.884;23.918;2023-04-21T00:47:57;95356.06;;;6.84;100.00
41222;BME280;26952;42.884;23.918;2023-04-21T00:50:22;95388.44;;;7.00;100.00
41222;BME280;26952;42.884;23.918;2023-04-21T00:52:48;95373.00;;;7.05;100.00
41222;BME280;26952;42.884;23.918;2023-04-21T00:55:13;95387.00;;;7.22;100.00
41222;BME280;26952;42.884;23.918;2023-04-21T00:57:39;95360.66;;;6.98;100.00
41222;BME280;26952;42.884;23.918;2023-04-21T01:00:06;95357.63;;;6.53;100.00
41222;BME280;26952;42.884;23.918;2023-04-21T01:02:34;95374.78;;;6.31;100.00
41222;BME280;26952;42.884;23.918;2023-04-21T01:05:00;95287.81;;;5.67;100.00
41222;BME280;26952;42.884;23.918;2023-04-21T01:07:26;95356.34;;;6.15;100.00
41222;BME280;26952;42.884;23.918;2023-04-21T01:09:52;95360.34;;;6.27;100.00
41222;BME280;26952;42.884;23.918;2023-04-21T01:12:17;95383.25;;;6.51;100.00
41222;BME280;26952;42.884;23.918;2023-04-21T01:14:43;95369.06;;;6.44;100.00
41222;BME280;26952;42.884;23.918;2023-04-21T01:17:08;95353.91;;;6.22;100.00
41222;BME280;26952;42.884;23.918;2023-04-21T01:19:38;95385.16;;;6.41;100.00
41222;BME280;26952;42.884;23.918;2023-04-21T01:22:08;95372.50;;;6.36;100.00
41222;BME280;26952;42.884;23.918;2023-04-21T01:24:49;95373.50;;;6.35;100.00
41222;BME280;26952;42.884;23.918;2023-04-21T01:27:19;95387.91;;;6.23;100.00
41222;BME280;26952;42.884;23.918;2023-04-21T01:29:48;95372.38;;;6.04;100.00
41222;BME280;26952;42.884;23.918;2023-04-21T01:32:15;95380.28;;;6.12;100.00
41222;BME280;26952;42.884;23.918;2023-04-21T01:34:42;95368.75;;;6.05;100.00
41222;BME280;26952;42.884;23.918;2023-04-21T01:37:12;95370.75;;;6.11;100.00
41222;BME280;26952;42.884;23.918;2023-04-21T01:39:39;95379.06;;;6.32;100.00
41222;BME280;26952;42.884;23.918;2023-04-21T01:42:05;95352.38;;;6.19;100.00
41222;BME280;26952;42.884;23.918;2023-04-21T01:44:30;95376.19;;;6.51;100.00
41222;BME280;26952;42.884;23.918;2023-04-21T01:46:56;95362.38;;;6.49;100.00
41222;BME280;26952;42.884;23.918;2023-04-21T01:49:22;95367.16;;;6.62;100.00
41222;BME280;26952;42.884;23.918;2023-04-21T01:51:47;95358.78;;;6.58;100.00
41222;BME280;26952;42.884;23.918;2023-04-21T01:54:13;95384.31;;;6.74;100.00
41222;BME280;26952;42.884;23.918;2023-04-21T01:56:38;95357.09;;;6.41;100.00
41222;BME280;26952;42.884;23.918;2023-04-21T01:59:04;95370.41;;;6.40;100.00
41222;BME280;26952;42.884;23.918;2023-04-21T02:01:29;95365.09;;;6.32;100.00
41222;BME280;26952;42.884;23.918;2023-04-21T02:03:55;95354.41;;;6.25;100.00
41222;BME280;26952;42.884;23.918;2023-04-21T02:06:20;95349.47;;;6.22;100.00
41222;BME280;26952;42.884;23.918;2023-04-21T02:08:45;95338.63;;;6.17;100.00
41222;BME280;26952;42.884;23.918;2023-04-21T02:11:11;95339.91;;;6.13;100.00
41222;BME280;26952;42.884;23.918;2023-04-21T02:13:36;95345.66;;;6.17;100.00
41222;BME280;26952;42.884;23.918;2023-04-21T02:16:02;95302.03;;;5.90;100.00
41222;BME280;26952;42.884;23.918;2023-04-21T02:18:27;95265.28;;;5.64;100.00
41222;BME280;26952;42.884;23.918;2023-04-21T02:20:54;95268.59;;;5.66;100.00
41222;BME280;26952;42.884;23.918;2023-04-21T02:23:20;95315.03;;;5.92;100.00
41222;BME280;26952;42.884;23.918;2023-04-21T02:25:45;95342.91;;;6.26;100.00
41222;BME280;26952;42.884;23.918;2023-04-21T02:28:11;95362.00;;;6.36;100.00
41222;BME280;26952;42.884;23.918;2023-04-21T02:30:36;95372.84;;;6.33;100.00
41222;BME280;26952;42.884;23.918;2023-04-21T02:33:01;95352.59;;;6.26;100.00
41222;BME280;26952;42.884;23.918;2023-04-21T02:35:27;95346.78;;;6.06;100.00
41222;BME280;26952;42.884;23.918;2023-04-21T02:37:52;95343.44;;;5.96;100.00
41222;BME280;26952;42.884;23.918;2023-04-21T02:40:18;95361.88;;;6.04;100.00
41222;BME280;26952;42.884;23.918;2023-04-21T02:42:43;95368.44;;;6.08;100.00
41222;BME280;26952;42.884;23.918;2023-04-21T02:45:09;95358.56;;;6.02;100.00
41222;BME280;26952;42.884;23.918;2023-04-21T02:47:35;95374.22;;;6.12;100.00
41222;BME280;26952;42.884;23.918;2023-04-21T02:50:00;95368.94;;;6.12;100.00
41222;BME280;26952;42.884;23.918;2023-04-21T02:52:26;95363.19;;;6.08;100.00
41222;BME280;26952;42.884;23.918;2023-04-21T02:54:52;95364.53;;;6.12;100.00
41222;BME280;26952;42.884;23.918;2023-04-21T02:57:17;95368.81;;;6.21;100.00
41222;BME280;26952;42.884;23.918;2023-04-21T02:59:42;95302.97;;;5.81;100.00
41222;BME280;26952;42.884;23.918;2023-04-21T03:02:08;95350.09;;;6.16;100.00
41222;BME280;26952;42.884;23.918;2023-04-21T03:04:33;95344.50;;;6.19;100.00
41222;BME280;26952;42.884;23.918;2023-04-21T03:06:58;95361.63;;;6.23;100.00
41222;BME280;26952;42.884;23.918;2023-04-21T03:09:24;95377.78;;;6.36;100.00
41222;BME280;26952;42.884;23.918;2023-04-21T03:11:49;95395.88;;;6.47;100.00
41222;BME280;26952;42.884;23.918;2023-04-21T03:14:15;95376.81;;;6.45;100.00
41222;BME280;26952;42.884;23.918;2023-04-21T03:16:40;95389.69;;;6.56;100.00
41222;BME280;26952;42.884;23.918;2023-04-21T03:19:05;95374.50;;;6.42;100.00
41222;BME280;26952;42.884;23.918;2023-04-21T03:21:31;95380.09;;;6.47;100.00
41222;BME280;26952;42.884;23.918;2023-04-21T03:23:56;95381.41;;;6.43;100.00
41222;BME280;26952;42.884;23.918;2023-04-21T03:26:22;95394.09;;;6.56;100.00
41222;BME280;26952;42.884;23.918;2023-04-21T03:28:47;95348.63;;;6.22;100.00
41222;BME280;26952;42.884;23.918;2023-04-21T03:31:12;95384.34;;;6.40;100.00
41222;BME280;26952;42.884;23.918;2023-04-21T03:33:38;95382.34;;;6.34;100.00
41222;BME280;26952;42.884;23.918;2023-04-21T03:36:03;95380.25;;;6.38;100.00
41222;BME280;26952;42.884;23.918;2023-04-21T03:38:29;95381.72;;;6.40;100.00
41222;BME280;26952;42.884;23.918;2023-04-21T03:40:54;95401.44;;;6.44;100.00
41222;BME280;26952;42.884;23.918;2023-04-21T03:43:19;95394.56;;;6.43;100.00
41222;BME280;26952;42.884;23.918;2023-04-21T03:45:45;95391.94;;;6.43;100.00
41222;BME280;26952;42.884;23.918;2023-04-21T03:48:10;95395.22;;;6.53;100.00
41222;BME280;26952;42.884;23.918;2023-04-21T03:50:37;95415.66;;;6.59;100.00
41222;BME280;26952;42.884;23.918;2023-04-21T03:53:02;95403.78;;;6.55;100.00
41222;BME280;26952;42.884;23.918;2023-04-21T03:55:28;95416.19;;;6.71;100.00
41222;BME280;26952;42.884;23.918;2023-04-21T03:57:53;95408.47;;;6.69;100.00
41222;BME280;26952;42.884;23.918;2023-04-21T04:00:19;95392.63;;;6.61;100.00
41222;BME280;26952;42.884;23.918;2023-04-21T04:02:45;95402.38;;;6.69;100.00
41222;BME280;26952;42.884;23.918;2023-04-21T04:05:11;95405.47;;;6.64;100.00
41222;BME280;26952;42.884;23.918;2023-04-21T04:07:36;95353.13;;;6.37;100.00
41222;BME280;26952;42.884;23.918;2023-04-21T04:10:02;95413.56;;;6.71;100.00
41222;BME280;26952;42.884;23.918;2023-04-21T04:12:27;95435.44;;;6.87;100.00
41222;BME280;26952;42.884;23.918;2023-04-21T04:14:53;95433.16;;;6.92;100.00
41222;BME280;26952;42.884;23.918;2023-04-21T04:17:18;95439.28;;;7.01;100.00
41222;BME280;26952;42.884;23.918;2023-04-21T04:19:44;95417.38;;;6.92;100.00
41222;BME280;26952;42.884;23.918;2023-04-21T04:22:09;95436.63;;;7.01;100.00
41222;BME280;26952;42.884;23.918;2023-04-21T04:24:34;95421.66;;;6.93;100.00
41222;BME280;26952;42.884;23.918;2023-04-21T04:27:00;95417.38;;;7.00;100.00
41222;BME280;26952;42.884;23.918;2023-04-21T04:29:27;95417.72;;;7.05;100.00
41222;BME280;26952;42.884;23.918;2023-04-21T04:31:53;95452.63;;;7.24;100.00
41222;BME280;26952;42.884;23.918;2023-04-21T04:34:19;95325.75;;;6.56;100.00
41222;BME280;26952;42.884;23.918;2023-04-21T04:36:45;95445.09;;;7.45;100.00
41222;BME280;26952;42.884;23.918;2023-04-21T04:39:12;95420.41;;;7.46;100.00
41222;BME280;26952;42.884;23.918;2023-04-21T04:41:38;95438.34;;;7.82;100.00
41222;BME280;26952;42.884;23.918;2023-04-21T04:44:04;95420.72;;;7.99;100.00
41222;BME280;26952;42.884;23.918;2023-04-21T04:46:30;95436.81;;;8.20;100.00
41222;BME280;26952;42.884;23.918;2023-04-21T04:48:55;95421.16;;;8.34;100.00
41222;BME280;26952;42.884;23.918;2023-04-21T04:51:21;95441.38;;;8.50;100.00
41222;BME280;26952;42.884;23.918;2023-04-21T04:53:48;95435.00;;;8.83;100.00
41222;BME280;26952;42.884;23.918;2023-04-21T04:56:13;95431.06;;;9.32;100.00
41222;BME280;26952;42.884;23.918;2023-04-21T04:58:38;95435.91;;;9.74;100.00
41222;BME280;26952;42.884;23.918;2023-04-21T05:01:16;95424.94;;;10.00;100.00
41222;BME280;26952;42.884;23.918;2023-04-21T05:03:44;95450.44;;;10.30;100.00
41222;BME280;26952;42.884;23.918;2023-04-21T05:06:10;95456.00;;;10.35;100.00
41222;BME280;26952;42.884;23.918;2023-04-21T05:08:35;95465.75;;;10.34;100.00
41222;BME280;26952;42.884;23.918;2023-04-21T05:11:01;95465.75;;;10.34;100.00
41222;BME280;26952;42.884;23.918;2023-04-21T05:13:26;95430.16;;;10.08;100.00
41222;BME280;26952;42.884;23.918;2023-04-21T05:15:58;95466.03;;;10.39;100.00
41222;BME280;26952;42.884;23.918;2023-04-21T05:18:26;95456.94;;;10.42;100.00
41222;BME280;26952;42.884;23.918;2023-04-21T05:20:52;95456.28;;;10.40;100.00
41222;BME280;26952;42.884;23.918;2023-04-21T05:23:17;95476.63;;;10.54;100.00
41222;BME280;26952;42.884;23.918;2023-04-21T05:25:43;95463.50;;;10.60;100.00
41222;BME280;26952;42.884;23.918;2023-04-21T05:28:08;95470.56;;;10.68;100.00
41222;BME280;26952;42.884;23.918;2023-04-21T05:30:34;95424.19;;;10.43;100.00
41222;BME280;26952;42.884;23.918;2023-04-21T05:32:59;95442.88;;;10.56;100.00
41222;BME280;26952;42.884;23.918;2023-04-21T05:35:25;95469.63;;;10.75;100.00
41222;BME280;26952;42.884;23.918;2023-04-21T05:37:50;95407.63;;;10.12;100.00
41222;BME280;26952;42.884;23.918;2023-04-21T05:40:15;95440.97;;;10.35;100.00
41222;BME280;26952;42.884;23.918;2023-04-21T05:42:41;95455.25;;;10.26;100.00
41222;BME280;26952;42.884;23.918;2023-04-21T05:45:06;95473.34;;;10.23;100.00
41222;BME280;26952;42.884;23.918;2023-04-21T05:47:32;95447.00;;;10.07;100.00
41222;BME280;26952;42.884;23.918;2023-04-21T05:49:57;95451.97;;;10.10;100.00
41222;BME280;26952;42.884;23.918;2023-04-21T05:52:23;95448.53;;;10.24;100.00
41222;BME280;26952;42.884;23.918;2023-04-21T05:54:48;95447.53;;;10.39;100.00
41222;BME280;26952;42.884;23.918;2023-04-21T05:57:13;95456.66;;;10.51;100.00
41222;BME280;26952;42.884;23.918;2023-04-21T05:59:40;95452.63;;;10.70;100.00
41222;BME280;26952;42.884;23.918;2023-04-21T06:02:06;95451.00;;;10.83;100.00
41222;BME280;26952;42.884;23.918;2023-04-21T06:04:31;95456.19;;;11.06;100.00
41222;BME280;26952;42.884;23.918;2023-04-21T06:06:57;95458.63;;;11.22;100.00
41222;BME280;26952;42.884;23.918;2023-04-21T06:09:22;95400.41;;;11.29;100.00
41222;BME280;26952;42.884;23.918;2023-04-21T06:11:48;95452.53;;;11.99;100.00
41222;BME280;26952;42.884;23.918;2023-04-21T06:14:14;95459.63;;;12.47;100.00
41222;BME280;26952;42.884;23.918;2023-04-21T06:16:40;95428.66;;;12.54;92.73
41222;BME280;26952;42.884;23.918;2023-04-21T06:19:05;95435.59;;;12.55;90.82
41222;BME280;26952;42.884;23.918;2023-04-21T06:21:31;95429.13;;;12.71;86.01
41222;BME280;26952;42.884;23.918;2023-04-21T06:23:57;95378.00;;;12.56;84.88
41222;BME280;26952;42.884;23.918;2023-04-21T06:26:22;95388.41;;;12.92;79.97
41222;BME280;26952;42.884;23.918;2023-04-21T06:28:47;95434.41;;;13.46;83.41
41222;BME280;26952;42.884;23.918;2023-04-21T06:31:13;95419.78;;;13.82;81.35
41222;BME280;26952;42.884;23.918;2023-04-21T06:33:40;95431.84;;;14.24;80.95
41222;BME280;26952;42.884;23.918;2023-04-21T06:36:06;95425.50;;;14.64;80.92
41222;BME280;26952;42.884;23.918;2023-04-21T06:38:31;95442.59;;;15.14;70.52
41222;BME280;26952;42.884;23.918;2023-04-21T06:40:57;95439.28;;;15.25;66.35
41222;BME280;26952;42.884;23.918;2023-04-21T06:43:22;95429.28;;;15.58;64.90
41222;BME280;26952;42.884;23.918;2023-04-21T06:45:47;95434.44;;;15.91;69.22
41222;BME280;26952;42.884;23.918;2023-04-21T06:48:13;95441.81;;;15.89;68.69
41222;BME280;26952;42.884;23.918;2023-04-21T06:50:38;95440.16;;;15.57;72.50
41222;BME280;26952;42.884;23.918;2023-04-21T06:53:04;95441.78;;;15.13;73.14
41222;BME280;26952;42.884;23.918;2023-04-21T06:55:29;95447.63;;;14.58;83.81
41222;BME280;26952;42.884;23.918;2023-04-21T06:57:54;95449.91;;;14.42;81.88
41222;BME280;26952;42.884;23.918;2023-04-21T07:00:20;95442.50;;;14.24;82.12
41222;BME280;26952;42.884;23.918;2023-04-21T07:02:46;95433.47;;;14.12;83.98
41222;BME280;26952;42.884;23.918;2023-04-21T07:05:11;95428.69;;;15.05;80.04
41222;BME280;26952;42.884;23.918;2023-04-21T07:07:37;95450.78;;;16.01;78.01
41222;BME280;26952;42.884;23.918;2023-04-21T07:10:03;95453.56;;;16.43;67.41
41222;BME280;26952;42.884;23.918;2023-04-21T07:12:28;95434.75;;;16.99;66.54
41222;BME280;26952;42.884;23.918;2023-04-21T07:14:54;95427.84;;;16.92;59.24
41222;BME280;26952;42.884;23.918;2023-04-21T07:17:20;95432.66;;;16.83;63.54
41222;BME280;26952;42.884;23.918;2023-04-21T07:19:45;95411.78;;;16.00;56.09
41222;BME280;26952;42.884;23.918;2023-04-21T07:22:11;95425.88;;;15.76;62.65
41222;BME280;26952;42.884;23.918;2023-04-21T07:24:36;95430.06;;;15.14;64.96
41222;BME280;26952;42.884;23.918;2023-04-21T07:27:02;95430.97;;;14.95;73.44
41222;BME280;26952;42.884;23.918;2023-04-21T07:29:28;95451.00;;;15.04;66.77
41222;BME280;26952;42.884;23.918;2023-04-21T07:31:53;95443.81;;;15.18;67.82
41222;BME280;26952;42.884;23.918;2023-04-21T07:34:19;95437.38;;;15.32;62.28
41222;BME280;26952;42.884;23.918;2023-04-21T07:36:45;95444.22;;;15.15;64.14
41222;BME280;26952;42.884;23.918;2023-04-21T07:39:10;95431.03;;;15.40;69.37
41222;BME280;26952;42.884;23.918;2023-04-21T07:41:35;95429.13;;;15.47;64.37
41222;BME280;26952;42.884;23.918;2023-04-21T07:44:01;95438.16;;;15.90;64.14
41222;BME280;26952;42.884;23.918;2023-04-21T07:46:26;95437.34;;;16.45;63.21
41222;BME280;26952;42.884;23.918;2023-04-21T07:48:56;95439.06;;;16.57;57.63
41222;BME280;26952;42.884;23.918;2023-04-21T07:51:22;95444.28;;;16.95;59.64
41222;BME280;26952;42.884;23.918;2023-04-21T07:53:48;95434.75;;;16.99;57.69
41222;BME280;26952;42.884;23.918;2023-04-21T07:56:14;95441.88;;;17.59;56.49
41222;BME280;26952;42.884;23.918;2023-04-21T07:58:39;95421.13;;;18.26;55.38
41222;BME280;26952;42.884;23.918;2023-04-21T08:01:05;95440.84;;;17.42;52.55
41222;BME280;26952;42.884;23.918;2023-04-21T08:03:30;95442.69;;;16.88;51.66
41222;BME280;26952;42.884;23.918;2023-04-21T08:05:56;95432.94;;;16.75;52.00
41222;BME280;26952;42.884;23.918;2023-04-21T08:08:21;95446.72;;;17.15;55.95
41222;BME280;26952;42.884;23.918;2023-04-21T08:10:46;95441.00;;;17.29;49.83
41222;BME280;26952;42.884;23.918;2023-04-21T08:13:12;95444.25;;;17.67;49.64
41222;BME280;26952;42.884;23.918;2023-04-21T08:15:37;95435.63;;;17.95;51.66
41222;BME280;26952;42.884;23.918;2023-04-21T08:18:03;95438.00;;;18.56;51.51
41222;BME280;26952;42.884;23.918;2023-04-21T08:20:28;95412.75;;;18.11;45.94
41222;BME280;26952;42.884;23.918;2023-04-21T08:22:54;95439.91;;;17.84;47.10
41222;BME280;26952;42.884;23.918;2023-04-21T08:25:19;95450.94;;;17.04;49.77
41222;BME280;26952;42.884;23.918;2023-04-21T08:27:45;95451.69;;;16.93;51.67
41222;BME280;26952;42.884;23.918;2023-04-21T08:30:11;95446.78;;;17.44;50.82
41222;BME280;26952;42.884;23.918;2023-04-21T08:32:36;95427.81;;;17.93;46.87
41222;BME280;26952;42.884;23.918;2023-04-21T08:35:02;95443.88;;;17.93;49.27
41222;BME280;26952;42.884;23.918;2023-04-21T08:37:27;95438.28;;;18.25;48.29
41222;BME280;26952;42.884;23.918;2023-04-21T08:39:53;95430.09;;;17.78;48.23
41222;BME280;26952;42.884;23.918;2023-04-21T08:42:19;95429.31;;;17.42;48.87
41222;BME280;26952;42.884;23.918;2023-04-21T08:44:45;95449.25;;;18.35;49.97
41222;BME280;26952;42.884;23.918;2023-04-21T08:47:12;95440.25;;;18.82;45.76
41222;BME280;26952;42.884;23.918;2023-04-21T08:49:39;95441.88;;;18.94;47.54
41222;BME280;26952;42.884;23.918;2023-04-21T08:52:06;95441.81;;;17.48;49.82
41222;BME280;26952;42.884;23.918;2023-04-21T08:54:32;95439.06;;;17.00;50.90
41222;BME280;26952;42.884;23.918;2023-04-21T08:56:57;95443.88;;;16.92;52.01
41222;BME280;26952;42.884;23.918;2023-04-21T08:59:23;95428.81;;;17.15;51.92
41222;BME280;26952;42.884;23.918;2023-04-21T09:02:11;95431.50;;;16.97;50.92
41222;BME280;26952;42.884;23.918;2023-04-21T09:04:44;95421.53;;;17.22;51.49
41222;BME280;26952;42.884;23.918;2023-04-21T09:07:10;95429.84;;;16.96;54.03
41222;BME280;26952;42.884;23.918;2023-04-21T09:09:54;95410.38;;;16.71;52.23
41222;BME280;26952;42.884;23.918;2023-04-21T09:12:20;95408.41;;;16.60;52.01
41222;BME280;26952;42.884;23.918;2023-04-21T09:14:45;95415.78;;;16.65;52.92
41222;BME280;26952;42.884;23.918;2023-04-21T09:17:11;95411.34;;;16.03;55.13
41222;BME280;26952;42.884;23.918;2023-04-21T09:19:37;95412.44;;;16.20;54.56
41222;BME280;26952;42.884;23.918;2023-04-21T09:22:02;95425.53;;;16.28;55.44
41222;BME280;26952;42.884;23.918;2023-04-21T09:24:29;95437.66;;;16.98;57.91
41222;BME280;26952;42.884;23.918;2023-04-21T09:26:54;95412.81;;;17.63;53.41
41222;BME280;26952;42.884;23.918;2023-04-21T09:29:23;95423.38;;;16.86;52.04
41222;BME280;26952;42.884;23.918;2023-04-21T09:31:50;95421.19;;;16.58;54.62
41222;BME280;26952;42.884;23.918;2023-04-21T09:36:44;95437.75;;;16.42;56.83
41222;BME280;26952;42.884;23.918;2023-04-21T09:39:10;95425.13;;;15.69;56.87
41222;BME280;26952;42.884;23.918;2023-04-21T09:41:35;95435.47;;;15.90;59.38
41222;BME280;26952;42.884;23.918;2023-04-21T09:44:01;95415.53;;;15.92;60.99
41222;BME280;26952;42.884;23.918;2023-04-21T09:46:31;95407.59;;;15.79;58.34
41222;BME280;26952;42.884;23.918;2023-04-21T09:48:59;95413.34;;;15.83;59.00
41222;BME280;26952;42.884;23.918;2023-04-21T09:51:25;95413.56;;;16.80;55.59
41222;BME280;26952;42.884;23.918;2023-04-21T09:53:53;95400.41;;;17.32;52.58
41222;BME280;26952;42.884;23.918;2023-04-21T09:56:23;95393.13;;;18.40;58.76
41222;BME280;26952;42.884;23.918;2023-04-21T09:58:53;95387.88;;;19.42;49.70
41222;BME280;26952;42.884;23.918;2023-04-21T10:01:19;95409.38;;;20.43;49.87
41222;BME280;26952;42.884;23.918;2023-04-21T10:03:47;95399.13;;;20.73;46.03
41222;BME280;26952;42.884;23.918;2023-04-21T10:06:13;95389.56;;;20.82;47.45
41222;BME280;26952;42.884;23.918;2023-04-21T10:08:39;95402.22;;;20.32;44.70
41222;BME280;26952;42.884;23.918;2023-04-21T10:11:05;95406.38;;;19.39;47.96
41222;BME280;26952;42.884;23.918;2023-04-21T10:13:31;95390.44;;;18.74;48.22
41222;BME280;26952;42.884;23.918;2023-04-21T10:16:02;95338.72;;;17.45;51.27
41222;BME280;26952;42.884;23.918;2023-04-21T10:18:28;95375.63;;;17.84;49.12
41222;BME280;26952;42.884;23.918;2023-04-21T10:21:17;95378.38;;;17.66;51.06
41222;BME280;26952;42.884;23.918;2023-04-21T10:23:51;95368.88;;;17.82;52.97
41222;BME280;26952;42.884;23.918;2023-04-21T10:26:25;95372.22;;;18.19;52.73
41222;BME280;26952;42.884;23.918;2023-04-21T10:28:53;95382.97;;;18.99;50.51
41222;BME280;26952;42.884;23.918;2023-04-21T10:31:50;95392.25;;;19.71;48.32
41222;BME280;26952;42.884;23.918;2023-04-21T10:34:17;95369.16;;;20.15;48.30
41222;BME280;26952;42.884;23.918;2023-04-21T10:41:49;95366.22;;;19.60;46.63
41222;BME280;26952;42.884;23.918;2023-04-21T10:44:15;95368.13;;;20.54;45.10
41222;BME280;26952;42.884;23.918;2023-04-21T10:46:45;95353.41;;;20.56;48.37
41222;BME280;26952;42.884;23.918;2023-04-21T10:54:21;95358.44;;;20.53;44.94
41222;BME280;26952;42.884;23.918;2023-04-21T10:56:48;95353.13;;;19.92;44.91
41222;BME280;26952;42.884;23.918;2023-04-21T10:59:17;95374.06;;;19.34;47.69
41222;BME280;26952;42.884;23.918;2023-04-21T11:01:42;95346.72;;;19.65;46.19
41222;BME280;26952;42.884;23.918;2023-04-21T11:04:20;95355.75;;;19.19;48.50
41222;BME280;26952;42.884;23.918;2023-04-21T11:09:31;95366.53;;;18.50;47.76
41222;BME280;26952;42.884;23.918;2023-04-21T11:12:00;95323.19;;;18.30;48.13
41222;BME280;26952;42.884;23.918;2023-04-21T11:14:27;95353.44;;;18.07;47.69
41222;BME280;26952;42.884;23.918;2023-04-21T11:16:52;95364.84;;;18.03;51.28
41222;BME280;26952;42.884;23.918;2023-04-21T11:19:18;95364.13;;;17.54;52.39
41222;BME280;26952;42.884;23.918;2023-04-21T11:21:48;95393.13;;;16.67;58.05
41222;BME280;26952;42.884;23.918;2023-04-21T11:24:14;95372.44;;;16.38;71.81
41222;BME280;26952;42.884;23.918;2023-04-21T11:26:40;95367.44;;;16.48;77.44
41222;BME280;26952;42.884;23.918;2023-04-21T11:29:08;95363.91;;;16.90;93.94
41222;BME280;26952;42.884;23.918;2023-04-21T11:31:35;95359.16;;;16.92;99.96
41222;BME280;26952;42.884;23.918;2023-04-21T11:34:02;95366.72;;;16.95;100.00
41222;BME280;26952;42.884;23.918;2023-04-21T11:36:35;95376.66;;;17.06;100.00
41222;BME280;26952;42.884;23.918;2023-04-21T11:39:15;95373.69;;;17.14;100.00
41222;BME280;26952;42.884;23.918;2023-04-21T11:41:43;95360.66;;;17.65;97.76
41222;BME280;26952;42.884;23.918;2023-04-21T11:44:09;95359.38;;;18.21;97.38
41222;BME280;26952;42.884;23.918;2023-04-21T11:46:35;95353.72;;;18.75;91.70
41222;BME280;26952;42.884;23.918;2023-04-21T11:49:03;95359.06;;;19.26;81.15
41222;BME280;26952;42.884;23.918;2023-04-21T11:51:40;95348.78;;;19.46;72.24
41222;BME280;26952;42.884;23.918;2023-04-21T11:54:11;95361.09;;;19.19;62.64
41222;BME280;26952;42.884;23.918;2023-04-21T11:56:41;95360.09;;;18.97;63.93
41222;BME280;26952;42.884;23.918;2023-04-21T11:59:12;95358.00;;;18.99;64.28
41222;BME280;26952;42.884;23.918;2023-04-21T12:01:52;95367.00;;;18.70;69.90
41222;BME280;26952;42.884;23.918;2023-04-21T12:04:24;95361.19;;;18.50;67.75
41222;BME280;26952;42.884;23.918;2023-04-21T12:06:58;95381.06;;;18.31;69.16
41222;BME280;26952;42.884;23.918;2023-04-21T12:09:24;95377.31;;;18.09;68.41
41222;BME280;26952;42.884;23.918;2023-04-21T12:11:51;95375.88;;;17.94;71.44
41222;BME280;26952;42.884;23.918;2023-04-21T12:14:22;95403.25;;;17.19;74.23
41222;BME280;26952;42.884;23.918;2023-04-21T12:16:53;95407.63;;;16.04;86.65
41222;BME280;26952;42.884;23.918;2023-04-21T12:19:38;95397.88;;;15.09;95.82
41222;BME280;26952;42.884;23.918;2023-04-21T12:22:08;95435.16;;;14.52;100.00
41222;BME280;26952;42.884;23.918;2023-04-21T12:24:35;95434.03;;;13.62;100.00
41222;BME280;26952;42.884;23.918;2023-04-21T12:27:00;95432.63;;;13.06;100.00
41222;BME280;26952;42.884;23.918;2023-04-21T12:29:26;95421.69;;;12.88;100.00
41222;BME280;26952;42.884;23.918;2023-04-21T12:31:52;95438.13;;;12.70;100.00
41222;BME280;26952;42.884;23.918;2023-04-21T12:34:17;95441.25;;;12.18;100.00
41222;BME280;26952;42.884;23.918;2023-04-21T12:36:43;95430.66;;;11.97;100.00
41222;BME280;26952;42.884;23.918;2023-04-21T12:39:08;95419.41;;;12.16;100.00
41222;BME280;26952;42.884;23.918;2023-04-21T12:41:34;95407.75;;;12.11;100.00
41222;BME280;26952;42.884;23.918;2023-04-21T12:43:59;95405.38;;;12.29;100.00
41222;BME280;26952;42.884;23.918;2023-04-21T12:46:25;95397.22;;;12.30;100.00
41222;BME280;26952;42.884;23.918;2023-04-21T12:48:50;95412.88;;;12.46;100.00
41222;BME280;26952;42.884;23.918;2023-04-21T12:51:16;95407.66;;;12.66;100.00
41222;BME280;26952;42.884;23.918;2023-04-21T12:53:42;95414.50;;;12.82;100.00
41222;BME280;26952;42.884;23.918;2023-04-21T12:56:08;95396.19;;;13.00;100.00
41222;BME280;26952;42.884;23.918;2023-04-21T12:58:33;95395.06;;;13.15;100.00
41222;BME280;26952;42.884;23.918;2023-04-21T13:00:58;95393.09;;;13.37;100.00